Time;durP1;ratioP1;P1;durP2;ratioP2;P2;SDS_P1;SDS_P2;PMS_P1;PMS_P2;Temp;Humidity;BMP_temperature;BMP_pressure;BME280_temperature;BME280_humidity;BME280_pressure;Samples;Min_cycle;Max_cycle;Signal;HPM_P1;HPM_P2
2024/03/19 00:02:18;;;;;;;14.27;7.10;;;11.70;99.90;;;;;;5014242;28;21526;-82
2024/03/19 00:04:44;;;;;;;12.48;7.72;;;11.70;99.90;;;;;;5011932;28;20017;-84
2024/03/19 00:07:10;;;;;;;12.80;7.35;;;11.70;99.90;;;;;;5026664;28;20056;-85
2024/03/19 00:09:36;;;;;;;12.23;7.05;;;11.70;99.90;;;;;;5028953;28;20014;-84
2024/03/19 00:12:01;;;;;;;16.55;6.95;;;11.70;99.90;;;;;;5031124;28;20025;-83
2024/03/19 00:14:27;;;;;;;13.88;6.95;;;11.70;99.90;;;;;;5011279;28;20049;-82
2024/03/19 00:16:52;;;;;;;16.27;7.63;;;11.80;99.90;;;;;;5013436;28;20017;-84
2024/03/19 00:19:18;;;;;;;12.95;7.85;;;11.70;99.90;;;;;;5008790;28;20032;-82
2024/03/19 00:21:44;;;;;;;15.18;8.07;;;11.70;99.90;;;;;;5010664;28;20530;-83
2024/03/19 00:24:09;;;;;;;12.73;6.72;;;11.70;99.90;;;;;;5030225;28;20761;-83
2024/03/19 00:26:36;;;;;;;16.67;7.95;;;11.70;99.90;;;;;;5007224;28;20030;-83
2024/03/19 00:29:01;;;;;;;14.32;6.93;;;11.70;99.90;;;;;;5027233;28;20096;-82
2024/03/19 00:31:27;;;;;;;10.55;6.82;;;11.80;99.90;;;;;;5013090;28;20112;-83
2024/03/19 00:33:53;;;;;;;13.93;7.72;;;11.70;99.90;;;;;;5010310;28;20472;-83
2024/03/19 00:36:20;;;;;;;13.52;7.32;;;11.70;99.90;;;;;;5027457;28;20540;-83
2024/03/19 00:38:45;;;;;;;14.43;7.68;;;11.70;99.90;;;;;;5029592;28;20044;-84
2024/03/19 00:41:11;;;;;;;14.40;7.00;;;11.70;99.90;;;;;;5031357;28;20060;-83
2024/03/19 00:43:37;;;;;;;13.98;6.63;;;11.70;99.90;;;;;;5010531;28;20022;-84
2024/03/19 00:46:03;;;;;;;13.60;6.93;;;11.70;99.90;;;;;;5013207;28;20715;-85
2024/03/19 00:52:10;;;;;;;10.88;6.30;;;11.70;99.90;;;;;;5023388;28;20515;-82
2024/03/19 00:54:35;;;;;;;13.60;7.35;;;11.70;99.90;;;;;;5013447;28;20434;-83
2024/03/19 00:57:01;;;;;;;13.52;7.70;;;11.70;99.90;;;;;;5013778;28;20029;-82
2024/03/19 01:06:16;;;;;;;14.52;7.50;;;11.70;99.90;;;;;;5026178;28;20031;-83
2024/03/19 01:08:42;;;;;;;12.70;7.50;;;11.70;99.90;;;;;;5027420;28;20013;-83
2024/03/19 01:11:09;;;;;;;11.27;6.57;;;11.70;99.90;;;;;;5009727;28;20720;-82
2024/03/19 01:13:34;;;;;;;16.10;6.85;;;11.70;99.90;;;;;;5027510;28;20522;-83
2024/03/19 01:16:00;;;;;;;14.90;7.22;;;11.70;99.90;;;;;;5006935;28;20061;-82
2024/03/19 01:18:25;;;;;;;12.00;6.88;;;11.70;99.90;;;;;;5010998;28;20030;-83
2024/03/19 01:20:53;;;;;;;11.70;6.88;;;11.70;99.90;;;;;;5009083;28;20029;-83
2024/03/19 01:23:19;;;;;;;17.63;7.15;;;11.70;99.90;;;;;;5026794;28;20542;-82
2024/03/19 01:25:44;;;;;;;16.00;7.35;;;11.70;99.90;;;;;;5011361;28;20101;-83
2024/03/19 01:28:11;;;;;;;13.18;7.00;;;11.70;99.90;;;;;;5009550;28;20028;-83
2024/03/19 01:30:36;;;;;;;12.60;6.18;;;11.70;99.90;;;;;;5008922;28;20101;-84
2024/03/19 01:33:02;;;;;;;12.05;6.25;;;11.70;99.90;;;;;;5028336;28;20104;-84
2024/03/19 01:35:28;;;;;;;11.13;6.70;;;11.70;99.90;;;;;;5009046;28;20029;-83
2024/03/19 01:37:53;;;;;;;17.40;6.45;;;11.70;99.90;;;;;;5028360;28;20032;-84
2024/03/19 01:40:19;;;;;;;10.85;6.50;;;11.70;99.90;;;;;;5008690;28;20120;-82
2024/03/19 01:42:44;;;;;;;10.73;6.57;;;11.70;99.90;;;;;;5009235;28;20041;-83
2024/03/19 01:45:12;;;;;;;12.05;7.18;;;11.70;99.90;;;;;;5030315;28;20036;-83
2024/03/19 01:47:39;;;;;;;14.43;7.15;;;11.70;99.90;;;;;;5008333;28;20017;-82
2024/03/19 01:50:10;;;;;;;9.52;5.78;;;11.70;99.90;;;;;;5030653;28;20503;-84
2024/03/19 01:52:57;;;;;;;10.98;6.18;;;11.70;99.90;;;;;;5006578;28;20025;-83
2024/03/19 01:55:23;;;;;;;11.40;6.25;;;11.70;99.90;;;;;;5007316;28;20387;-83
2024/03/19 01:57:51;;;;;;;12.18;6.55;;;11.70;99.90;;;;;;5029541;28;20014;-83
2024/03/19 02:00:17;;;;;;;13.55;7.22;;;11.70;99.90;;;;;;5010379;28;20040;-84
2024/03/19 02:02:42;;;;;;;10.32;6.22;;;11.70;99.90;;;;;;5008247;28;20030;-83
2024/03/19 02:05:10;;;;;;;11.07;6.30;;;11.70;99.90;;;;;;5029217;28;20100;-84
2024/03/19 02:07:36;;;;;;;13.38;7.13;;;11.70;99.90;;;;;;5029259;28;20016;-83
2024/03/19 02:10:01;;;;;;;12.15;6.68;;;11.70;99.90;;;;;;5009935;28;20025;-82
2024/03/19 02:12:28;;;;;;;14.23;7.50;;;11.70;99.90;;;;;;5027771;28;20096;-82
2024/03/19 02:14:54;;;;;;;10.18;6.50;;;11.70;99.90;;;;;;5030955;28;20022;-84
2024/03/19 02:17:21;;;;;;;11.30;7.00;;;11.70;99.90;;;;;;5026445;28;20025;-83
2024/03/19 02:19:47;;;;;;;13.55;6.43;;;11.70;99.90;;;;;;5010554;28;20048;-85
2024/03/19 02:22:15;;;;;;;11.43;5.97;;;11.70;99.90;;;;;;5012000;28;20029;-84
2024/03/19 02:24:42;;;;;;;13.65;7.13;;;11.70;99.90;;;;;;5030170;28;20029;-83
2024/03/19 02:27:08;;;;;;;13.90;6.93;;;11.70;99.90;;;;;;5009184;28;20030;-84
2024/03/19 02:29:34;;;;;;;12.02;6.38;;;11.60;99.90;;;;;;5011817;28;20108;-84
2024/03/19 02:32:00;;;;;;;13.70;6.85;;;11.70;99.90;;;;;;5006878;28;20109;-83
2024/03/19 02:34:25;;;;;;;10.75;6.07;;;11.70;99.90;;;;;;5009953;28;20022;-84
2024/03/19 02:36:52;;;;;;;10.98;6.15;;;11.70;99.90;;;;;;5029407;28;20022;-84
2024/03/19 02:39:17;;;;;;;14.10;7.38;;;11.70;99.90;;;;;;5010092;28;20031;-83
2024/03/19 02:41:43;;;;;;;13.80;7.72;;;11.70;99.90;;;;;;5008407;28;20116;-83
2024/03/19 02:44:09;;;;;;;14.05;6.95;;;11.70;99.90;;;;;;5009025;28;20030;-82
2024/03/19 02:46:36;;;;;;;13.00;7.05;;;11.70;99.90;;;;;;5011531;28;20017;-83
2024/03/19 02:49:01;;;;;;;12.77;6.30;;;11.70;99.90;;;;;;5008882;28;20056;-83
2024/03/19 02:51:27;;;;;;;15.50;7.00;;;11.70;99.90;;;;;;5026050;28;20065;-85
2024/03/19 02:53:52;;;;;;;15.57;7.25;;;11.70;99.90;;;;;;5009756;28;20052;-84
2024/03/19 02:56:18;;;;;;;17.52;8.13;;;11.70;99.90;;;;;;5007971;28;20021;-84
2024/03/19 02:58:43;;;;;;;12.50;6.78;;;11.70;99.90;;;;;;5009184;28;20052;-84
2024/03/19 03:01:09;;;;;;;12.27;7.78;;;11.70;99.90;;;;;;5029603;28;20076;-84
2024/03/19 03:03:35;;;;;;;12.98;6.53;;;11.70;99.90;;;;;;5010088;28;20029;-84
2024/03/19 03:06:00;;;;;;;14.80;7.15;;;11.60;99.90;;;;;;5027435;28;20013;-83
2024/03/19 03:08:26;;;;;;;15.38;6.95;;;11.60;99.90;;;;;;5023951;28;20033;-84
2024/03/19 03:10:53;;;;;;;16.08;7.32;;;11.70;99.90;;;;;;5007850;28;20057;-83
2024/03/19 03:13:18;;;;;;;13.68;7.35;;;11.60;99.90;;;;;;5012317;28;20026;-82
2024/03/19 03:15:44;;;;;;;14.38;6.55;;;11.60;99.90;;;;;;5014929;28;20070;-83
2024/03/19 03:18:10;;;;;;;12.38;6.88;;;11.60;99.90;;;;;;5011859;28;20412;-84
2024/03/19 03:20:36;;;;;;;14.52;6.93;;;11.60;99.90;;;;;;5028273;28;20028;-83
2024/03/19 03:23:02;;;;;;;14.45;6.75;;;11.60;99.90;;;;;;5015085;28;20021;-83
2024/03/19 03:25:29;;;;;;;11.70;6.20;;;11.60;99.90;;;;;;5011916;28;20021;-84
2024/03/19 03:27:55;;;;;;;12.93;6.75;;;11.60;99.90;;;;;;5013317;28;20021;-84
2024/03/19 03:30:22;;;;;;;13.15;6.90;;;11.60;99.90;;;;;;5011894;28;20502;-83
2024/03/19 03:32:47;;;;;;;13.05;6.75;;;11.60;99.90;;;;;;5015251;28;20023;-82
2024/03/19 03:35:13;;;;;;;15.63;7.10;;;11.60;99.90;;;;;;5013669;28;20017;-83
2024/03/19 03:37:39;;;;;;;17.58;7.47;;;11.60;99.90;;;;;;5030169;28;20109;-83
2024/03/19 03:40:22;;;;;;;13.07;6.00;;;11.60;99.90;;;;;;5009975;28;20014;-84
2024/03/19 03:42:48;;;;;;;13.45;6.43;;;11.60;99.90;;;;;;5031832;28;20519;-82
2024/03/19 03:45:21;;;;;;;12.82;6.63;;;11.60;99.90;;;;;;5011837;28;20116;-83
2024/03/19 03:47:47;;;;;;;14.90;6.43;;;11.60;99.90;;;;;;5009546;28;20017;-83
2024/03/19 03:50:13;;;;;;;13.27;6.15;;;11.60;99.90;;;;;;5032472;28;20021;-84
2024/03/19 03:52:39;;;;;;;11.18;5.55;;;11.60;99.90;;;;;;5011889;28;20028;-83
2024/03/19 03:55:07;;;;;;;14.68;6.63;;;11.60;99.90;;;;;;5029259;28;20022;-83
2024/03/19 03:57:33;;;;;;;13.30;7.22;;;11.60;99.90;;;;;;5030323;28;20045;-83
2024/03/19 04:00:00;;;;;;;15.20;6.72;;;11.60;99.90;;;;;;5012596;28;20057;-83
2024/03/19 04:02:25;;;;;;;13.93;6.80;;;11.60;99.90;;;;;;5010145;28;20037;-83
2024/03/19 04:04:54;;;;;;;15.30;7.60;;;11.60;99.90;;;;;;5015185;28;20032;-85
2024/03/19 04:07:19;;;;;;;16.52;7.22;;;11.60;99.90;;;;;;5010070;28;20103;-83
2024/03/19 04:09:45;;;;;;;14.07;6.88;;;11.60;99.90;;;;;;5030392;28;20021;-84
2024/03/19 04:12:11;;;;;;;14.00;7.53;;;11.60;99.90;;;;;;5011643;28;20029;-83
2024/03/19 04:14:36;;;;;;;15.27;6.90;;;11.60;99.90;;;;;;5012582;28;20045;-82
2024/03/19 04:17:02;;;;;;;13.38;6.05;;;11.60;99.90;;;;;;5030640;28;20487;-83
2024/03/19 04:19:27;;;;;;;12.68;6.47;;;11.60;99.90;;;;;;5014271;28;21190;-84
2024/03/19 04:21:53;;;;;;;17.00;7.32;;;11.60;99.90;;;;;;5012463;28;20029;-84
2024/03/19 04:24:18;;;;;;;13.82;6.28;;;11.60;99.90;;;;;;5009246;28;20033;-82
2024/03/19 04:26:44;;;;;;;14.77;6.75;;;11.60;99.90;;;;;;5010089;28;20018;-84
2024/03/19 04:29:15;;;;;;;17.67;8.10;;;11.60;99.90;;;;;;5013379;28;20041;-83
2024/03/19 04:31:41;;;;;;;13.45;7.10;;;11.60;99.90;;;;;;5011067;28;20076;-83
2024/03/19 04:34:09;;;;;;;15.32;6.88;;;11.60;99.90;;;;;;5028190;28;20026;-83
2024/03/19 04:36:34;;;;;;;16.92;7.07;;;11.60;99.90;;;;;;5030677;28;20028;-84
2024/03/19 04:39:02;;;;;;;16.38;7.05;;;11.60;99.90;;;;;;5012745;28;20021;-83
2024/03/19 04:41:28;;;;;;;13.73;6.47;;;11.60;99.90;;;;;;5030661;28;20099;-82
2024/03/19 04:43:54;;;;;;;12.88;6.70;;;11.60;99.90;;;;;;5014088;28;20104;-83
2024/03/19 04:46:20;;;;;;;16.02;7.20;;;11.60;99.90;;;;;;5009889;28;20018;-84
2024/03/19 04:48:45;;;;;;;13.45;6.80;;;11.60;99.90;;;;;;5008748;28;20022;-83
2024/03/19 04:51:12;;;;;;;17.20;7.20;;;11.60;99.90;;;;;;5012086;28;20071;-83
2024/03/19 04:53:37;;;;;;;14.43;7.30;;;11.60;99.90;;;;;;5011071;28;20021;-83
2024/03/19 04:56:03;;;;;;;13.77;6.60;;;11.60;99.90;;;;;;5010561;28;20176;-83
2024/03/19 04:58:29;;;;;;;15.73;7.25;;;11.60;99.90;;;;;;5012484;28;20075;-84
2024/03/19 05:00:55;;;;;;;18.23;6.95;;;11.60;99.90;;;;;;5012161;28;20018;-83
2024/03/19 05:03:21;;;;;;;15.13;7.07;;;11.60;99.90;;;;;;5008972;28;20048;-83
2024/03/19 05:05:46;;;;;;;15.52;7.32;;;11.60;99.90;;;;;;5031042;28;20472;-82
2024/03/19 05:08:12;;;;;;;14.38;6.88;;;11.60;99.90;;;;;;5012914;28;20166;-84
2024/03/19 05:10:38;;;;;;;14.95;6.60;;;11.60;99.90;;;;;;5028322;28;20030;-83
2024/03/19 05:13:03;;;;;;;15.75;7.07;;;11.60;99.90;;;;;;5007440;28;20553;-84
2024/03/19 05:15:29;;;;;;;12.15;6.68;;;11.60;99.90;;;;;;5010519;28;20539;-83
2024/03/19 05:17:54;;;;;;;13.52;7.43;;;11.60;99.90;;;;;;5010851;28;20427;-83
2024/03/19 05:20:20;;;;;;;13.73;6.28;;;11.60;99.90;;;;;;5030549;28;20105;-83
2024/03/19 05:22:47;;;;;;;16.15;7.22;;;11.60;99.90;;;;;;5012631;28;20013;-84
2024/03/19 05:25:13;;;;;;;12.73;6.93;;;11.60;99.90;;;;;;5008737;28;20030;-84
2024/03/19 05:27:38;;;;;;;10.45;6.25;;;11.60;99.90;;;;;;5032703;28;20020;-82
2024/03/19 05:30:04;;;;;;;13.80;6.88;;;11.60;99.90;;;;;;5010703;28;20476;-83
2024/03/19 05:32:30;;;;;;;15.05;7.18;;;11.60;99.90;;;;;;5012640;28;20025;-83
2024/03/19 05:34:55;;;;;;;14.43;6.72;;;11.60;99.90;;;;;;5011810;28;20380;-84
2024/03/19 05:37:21;;;;;;;15.02;7.05;;;11.60;99.90;;;;;;5012351;28;20044;-82
2024/03/19 05:39:46;;;;;;;13.57;7.10;;;11.60;99.90;;;;;;5009863;28;20037;-83
2024/03/19 05:42:12;;;;;;;13.23;6.90;;;11.60;99.90;;;;;;5028868;28;20040;-83
2024/03/19 05:44:38;;;;;;;16.10;7.40;;;11.60;99.90;;;;;;5011150;28;20109;-83
2024/03/19 05:47:03;;;;;;;12.93;7.55;;;11.60;99.90;;;;;;5012118;28;20029;-85
2024/03/19 05:49:29;;;;;;;16.38;6.95;;;11.60;99.90;;;;;;5028341;28;20384;-83
2024/03/19 05:51:55;;;;;;;11.85;6.00;;;11.60;99.90;;;;;;5030280;28;20434;-84
2024/03/19 05:54:20;;;;;;;13.55;7.38;;;11.60;99.90;;;;;;5012850;28;20025;-85
2024/03/19 05:56:46;;;;;;;18.08;6.50;;;11.60;99.90;;;;;;5010707;28;20105;-82
2024/03/19 05:59:12;;;;;;;17.20;7.22;;;11.60;99.90;;;;;;5004220;28;20037;-83
2024/03/19 06:01:37;;;;;;;17.02;7.10;;;11.60;99.90;;;;;;5011876;28;20112;-83
2024/03/19 06:04:04;;;;;;;21.75;7.88;;;11.60;99.90;;;;;;5029490;28;20017;-84
2024/03/19 06:06:29;;;;;;;16.52;7.78;;;11.60;99.90;;;;;;5028954;28;20029;-82
2024/03/19 06:08:55;;;;;;;14.20;7.35;;;11.60;99.90;;;;;;5012421;28;20013;-83
2024/03/19 06:11:20;;;;;;;21.73;7.32;;;11.60;99.90;;;;;;5012460;28;20029;-83
2024/03/19 06:13:46;;;;;;;18.42;7.90;;;11.60;99.90;;;;;;5028264;28;20141;-83
2024/03/19 06:16:11;;;;;;;17.75;8.10;;;11.60;99.90;;;;;;5006753;28;20026;-84
2024/03/19 06:18:37;;;;;;;22.23;8.55;;;11.60;99.90;;;;;;5030046;28;20021;-83
2024/03/19 06:21:03;;;;;;;24.02;8.57;;;11.60;99.90;;;;;;5029290;28;20048;-84
2024/03/19 06:23:29;;;;;;;18.35;8.20;;;11.60;99.90;;;;;;5011328;28;20502;-83
2024/03/19 06:25:54;;;;;;;23.27;8.35;;;11.60;99.90;;;;;;5029699;28;20065;-85
2024/03/19 06:28:20;;;;;;;25.45;8.68;;;11.60;99.90;;;;;;5028165;28;20022;-83
2024/03/19 06:30:46;;;;;;;24.38;7.80;;;11.70;99.90;;;;;;5011697;28;20116;-84
2024/03/19 06:33:12;;;;;;;18.38;7.03;;;11.60;99.90;;;;;;5011703;28;20402;-84
2024/03/19 06:35:40;;;;;;;18.33;8.48;;;11.60;99.90;;;;;;5008954;28;20053;-84
2024/03/19 06:38:05;;;;;;;19.38;8.30;;;11.60;99.90;;;;;;5020226;28;20026;-83
2024/03/19 06:40:31;;;;;;;22.48;8.27;;;11.60;99.90;;;;;;5005145;28;20475;-83
2024/03/19 06:42:58;;;;;;;23.77;8.93;;;11.60;99.90;;;;;;5025881;28;20034;-83
2024/03/19 06:45:23;;;;;;;19.85;8.40;;;11.70;99.90;;;;;;5023373;28;20032;-85
2024/03/19 06:47:49;;;;;;;21.35;8.88;;;11.70;99.90;;;;;;5021138;28;20021;-84
2024/03/19 06:50:15;;;;;;;21.90;9.35;;;11.60;99.90;;;;;;5009114;28;20014;-83
2024/03/19 06:52:43;;;;;;;23.63;7.80;;;11.70;99.90;;;;;;5005729;28;20028;-83
2024/03/19 06:55:09;;;;;;;20.80;8.05;;;11.60;99.90;;;;;;5021607;28;20018;-84
2024/03/19 06:57:36;;;;;;;22.55;8.63;;;11.60;99.90;;;;;;5010749;28;20173;-83
2024/03/19 07:00:02;;;;;;;27.95;8.75;;;11.60;99.90;;;;;;5011076;28;20068;-83
2024/03/19 07:02:30;;;;;;;22.48;8.10;;;11.60;99.90;;;;;;5011169;28;20030;-83
2024/03/19 07:04:56;;;;;;;19.55;7.63;;;11.60;99.90;;;;;;5011763;28;20029;-84
2024/03/19 07:07:22;;;;;;;25.98;9.20;;;11.60;99.90;;;;;;5028628;28;20033;-84
2024/03/19 07:09:53;;;;;;;21.35;9.30;;;11.70;99.90;;;;;;5026226;28;20025;-84
2024/03/19 07:12:19;;;;;;;24.33;9.38;;;11.60;99.90;;;;;;5011774;28;20072;-84
2024/03/19 07:14:46;;;;;;;26.02;8.82;;;11.60;99.90;;;;;;5009603;28;20029;-84
2024/03/19 07:17:12;;;;;;;25.80;9.45;;;11.70;99.90;;;;;;5028489;28;20437;-84
2024/03/19 07:19:38;;;;;;;23.75;8.52;;;11.60;99.90;;;;;;5012578;28;20025;-82
2024/03/19 07:22:04;;;;;;;22.75;8.73;;;11.70;99.90;;;;;;5008289;28;20479;-83
2024/03/19 07:24:29;;;;;;;20.60;8.00;;;11.70;99.90;;;;;;5011517;28;20117;-84
2024/03/19 07:26:55;;;;;;;24.42;9.43;;;11.70;99.90;;;;;;5028798;28;20475;-83
2024/03/19 07:29:21;;;;;;;24.70;9.05;;;11.60;99.90;;;;;;5029162;28;20034;-82
2024/03/19 07:31:47;;;;;;;25.90;8.52;;;11.70;99.90;;;;;;5027584;28;20029;-84
2024/03/19 07:34:13;;;;;;;25.98;8.82;;;11.70;99.90;;;;;;5009303;28;20103;-83
2024/03/19 07:36:39;;;;;;;24.40;9.00;;;11.70;99.90;;;;;;5028236;28;20049;-82
2024/03/19 07:39:11;;;;;;;22.80;9.75;;;11.70;99.90;;;;;;5005000;28;20079;-84
2024/03/19 07:41:38;;;;;;;23.17;8.82;;;11.70;99.90;;;;;;5010565;28;20025;-83
2024/03/19 07:44:04;;;;;;;27.85;10.23;;;11.70;99.90;;;;;;5010908;28;20021;-84
2024/03/19 07:46:29;;;;;;;23.23;8.95;;;11.70;99.90;;;;;;5010030;28;20117;-84
2024/03/19 07:48:55;;;;;;;25.40;9.48;;;11.70;99.90;;;;;;5009698;28;20013;-83
2024/03/19 07:51:21;;;;;;;25.20;9.40;;;11.70;99.90;;;;;;5027971;28;20033;-82
2024/03/19 07:53:46;;;;;;;24.30;9.15;;;11.70;99.90;;;;;;5028836;28;20087;-83
2024/03/19 07:56:12;;;;;;;27.35;9.48;;;11.70;99.90;;;;;;5023584;28;20034;-84
2024/03/19 07:58:38;;;;;;;26.45;9.45;;;11.70;99.90;;;;;;5020970;28;20523;-84
2024/03/19 08:01:07;;;;;;;22.02;8.68;;;11.70;99.90;;;;;;5008656;28;20558;-85
2024/03/19 08:03:35;;;;;;;23.85;9.15;;;11.70;99.90;;;;;;5011057;28;20120;-84
2024/03/19 08:06:04;;;;;;;20.92;9.10;;;11.70;99.90;;;;;;5005088;28;20021;-85
2024/03/19 08:08:29;;;;;;;22.13;9.73;;;11.70;99.90;;;;;;5014279;28;20531;-85
2024/03/19 08:10:56;;;;;;;25.17;9.40;;;11.70;99.90;;;;;;5011358;28;20034;-85
2024/03/19 08:13:22;;;;;;;27.92;9.93;;;11.70;99.90;;;;;;5012597;28;20044;-83
2024/03/19 08:15:47;;;;;;;25.27;9.45;;;11.70;99.90;;;;;;5031472;28;20033;-85
2024/03/19 08:18:13;;;;;;;25.90;9.50;;;11.70;99.90;;;;;;5014467;28;20029;-84
2024/03/19 08:20:39;;;;;;;22.08;8.68;;;11.70;99.90;;;;;;5011820;28;20415;-84
2024/03/19 08:23:05;;;;;;;23.08;9.43;;;11.70;99.90;;;;;;5031968;28;20025;-83
2024/03/19 08:25:31;;;;;;;27.15;9.98;;;11.70;99.90;;;;;;5014470;28;20029;-85
2024/03/19 08:27:57;;;;;;;23.95;8.27;;;11.70;99.90;;;;;;5014312;28;20026;-85
2024/03/19 08:30:23;;;;;;;29.40;9.85;;;11.70;99.90;;;;;;5014300;28;20530;-85
2024/03/19 08:32:49;;;;;;;22.83;9.30;;;11.70;99.90;;;;;;5031578;28;20025;-83
2024/03/19 08:35:15;;;;;;;28.33;10.88;;;11.70;99.90;;;;;;5014205;28;20044;-84
2024/03/19 08:37:41;;;;;;;24.48;9.85;;;11.70;99.90;;;;;;5013754;28;20036;-84
2024/03/19 08:40:09;;;;;;;26.73;10.55;;;11.70;99.90;;;;;;5010258;28;20018;-84
2024/03/19 08:42:35;;;;;;;30.00;10.27;;;11.70;99.90;;;;;;5007400;28;20029;-84
2024/03/19 08:45:05;;;;;;;23.25;9.90;;;11.70;99.90;;;;;;5011506;28;20475;-83
2024/03/19 08:47:31;;;;;;;25.85;9.70;;;11.70;99.90;;;;;;5012015;28;20022;-83
2024/03/19 08:49:57;;;;;;;22.60;9.00;;;11.70;99.90;;;;;;5011035;28;20045;-84
2024/03/19 08:52:23;;;;;;;26.95;10.25;;;11.80;99.90;;;;;;5013747;28;20472;-84
2024/03/19 08:54:51;;;;;;;25.63;9.35;;;11.80;99.90;;;;;;5013471;28;20018;-85
2024/03/19 08:57:17;;;;;;;24.92;8.82;;;11.80;99.90;;;;;;5013577;28;20043;-84
2024/03/19 08:59:42;;;;;;;28.63;10.13;;;11.70;99.90;;;;;;5008238;28;20479;-85
2024/03/19 09:02:08;;;;;;;20.35;9.73;;;11.70;99.90;;;;;;5031434;28;20033;-85
2024/03/19 09:04:37;;;;;;;27.02;10.27;;;11.70;99.90;;;;;;5013662;28;20025;-84
2024/03/19 09:07:03;;;;;;;20.45;9.27;;;11.80;99.90;;;;;;5013429;28;20052;-83
2024/03/19 09:09:29;;;;;;;22.02;9.48;;;11.80;99.90;;;;;;5013155;28;20018;-85
2024/03/19 09:11:55;;;;;;;21.58;9.13;;;11.70;99.90;;;;;;5014972;28;20545;-84
2024/03/19 09:14:20;;;;;;;21.10;9.00;;;11.80;99.90;;;;;;5011100;28;20021;-84
2024/03/19 09:16:46;;;;;;;19.52;8.35;;;11.80;99.90;;;;;;5011674;28;20064;-84
2024/03/19 09:19:12;;;;;;;20.38;9.32;;;11.80;99.90;;;;;;5009472;28;20874;-83
2024/03/19 09:21:37;;;;;;;20.85;9.13;;;11.80;99.90;;;;;;5003866;28;20022;-84
2024/03/19 09:24:03;;;;;;;22.38;9.95;;;11.70;99.90;;;;;;5013106;28;20013;-85
2024/03/19 09:26:29;;;;;;;20.45;8.23;;;11.70;99.90;;;;;;5031028;28;20021;-83
2024/03/19 09:28:58;;;;;;;21.58;9.00;;;11.80;99.90;;;;;;5013013;28;20024;-84
2024/03/19 09:31:23;;;;;;;24.92;9.93;;;11.80;99.90;;;;;;5012388;28;20509;-85
2024/03/19 09:33:49;;;;;;;20.52;8.55;;;11.80;99.90;;;;;;5030597;28;20128;-83
2024/03/19 09:36:15;;;;;;;23.75;9.07;;;11.80;99.90;;;;;;5030455;28;20048;-84
2024/03/19 09:38:48;;;;;;;25.58;9.20;;;11.80;99.90;;;;;;5012219;28;20087;-84
2024/03/19 09:41:15;;;;;;;20.67;8.82;;;11.80;99.90;;;;;;5030632;28;20036;-84
2024/03/19 09:43:41;;;;;;;21.50;8.90;;;11.80;99.90;;;;;;5026014;28;20028;-83
2024/03/19 09:46:07;;;;;;;17.40;8.10;;;11.80;99.90;;;;;;5012350;28;20017;-83
2024/03/19 09:48:33;;;;;;;23.60;9.60;;;11.80;99.90;;;;;;5009452;28;20483;-84
2024/03/19 09:51:00;;;;;;;20.17;9.23;;;11.90;99.90;;;;;;5029192;28;20108;-83
2024/03/19 09:53:29;;;;;;;18.80;8.15;;;11.80;99.90;;;;;;5028675;28;20100;-84
2024/03/19 09:55:55;;;;;;;21.83;9.18;;;11.90;99.90;;;;;;5007050;28;20562;-87
2024/03/19 09:58:24;;;;;;;20.85;9.13;;;11.90;99.90;;;;;;5028868;28;20080;-84
2024/03/19 10:00:53;;;;;;;22.77;9.80;;;11.90;99.90;;;;;;5012215;28;20091;-83
2024/03/19 10:03:19;;;;;;;25.85;9.98;;;11.90;99.90;;;;;;5011065;28;20056;-84
2024/03/19 10:05:45;;;;;;;23.85;10.15;;;12.00;99.90;;;;;;5012673;28;20041;-84
2024/03/19 10:08:17;;;;;;;21.73;8.80;;;12.00;99.90;;;;;;5009940;28;20025;-83
2024/03/19 10:10:47;;;;;;;25.55;9.30;;;12.10;99.90;;;;;;5009243;28;20470;-84
2024/03/19 10:13:13;;;;;;;19.73;8.25;;;12.10;99.90;;;;;;5029736;28;20132;-83
2024/03/19 10:15:39;;;;;;;21.13;8.43;;;12.10;99.90;;;;;;5029559;28;20914;-82
2024/03/19 10:18:08;;;;;;;21.92;9.25;;;12.10;99.90;;;;;;5009643;28;20568;-83
2024/03/19 10:20:37;;;;;;;18.27;8.75;;;12.10;99.90;;;;;;5026754;28;20442;-81
2024/03/19 10:23:04;;;;;;;20.00;7.38;;;12.10;99.90;;;;;;5030551;28;20446;-83
2024/03/19 10:25:29;;;;;;;21.63;9.30;;;12.20;99.90;;;;;;5011890;28;20022;-82
2024/03/19 10:27:55;;;;;;;18.05;7.82;;;12.10;99.90;;;;;;5027761;28;20030;-83
2024/03/19 10:30:21;;;;;;;25.65;8.98;;;12.20;99.90;;;;;;5011369;28;20033;-83
2024/03/19 10:32:49;;;;;;;22.33;8.10;;;12.30;99.90;;;;;;5011763;28;20029;-87
2024/03/19 10:35:20;;;;;;;21.27;8.25;;;12.50;99.90;;;;;;5006936;28;20032;-85
2024/03/19 10:37:48;;;;;;;18.83;8.30;;;12.80;99.90;;;;;;5028941;28;20522;-84
2024/03/19 10:40:15;;;;;;;18.40;9.05;;;12.90;99.90;;;;;;5011371;28;20510;-84
2024/03/19 10:42:42;;;;;;;24.35;9.13;;;13.00;99.90;;;;;;5006561;28;20681;-84
2024/03/19 10:45:34;;;;;;;22.98;8.88;;;12.90;99.90;;;;;;5010661;28;20048;-84
2024/03/19 10:48:00;;;;;;;25.15;9.13;;;12.90;99.90;;;;;;5004734;28;20038;-83
2024/03/19 10:50:26;;;;;;;23.17;9.27;;;13.10;99.90;;;;;;5007818;28;20549;-84
2024/03/19 10:53:01;;;;;;;23.00;10.55;;;13.30;99.90;;;;;;5006963;28;20025;-85
2024/03/19 10:55:29;;;;;;;27.40;10.30;;;13.40;99.90;;;;;;5004940;28;20029;-84
2024/03/19 10:58:02;;;;;;;21.20;9.40;;;13.30;99.90;;;;;;5009876;28;20036;-84
2024/03/19 11:00:29;;;;;;;21.15;9.93;;;13.40;99.90;;;;;;5009525;28;20056;-83
2024/03/19 11:02:59;;;;;;;21.80;10.20;;;13.60;99.90;;;;;;5010280;28;20108;-83
2024/03/19 11:05:26;;;;;;;21.02;9.30;;;13.70;99.90;;;;;;5007805;28;20017;-84
2024/03/19 11:07:54;;;;;;;21.25;9.18;;;13.50;99.90;;;;;;5008738;28;20030;-82
2024/03/19 11:10:32;;;;;;;19.85;9.00;;;13.40;99.90;;;;;;5007940;28;20492;-82
2024/03/19 11:13:21;;;;;;;24.75;10.05;;;13.30;99.90;;;;;;5009582;28;20017;-83
2024/03/19 11:15:47;;;;;;;18.25;9.75;;;13.20;99.90;;;;;;5010938;28;20435;-82
2024/03/19 11:18:13;;;;;;;21.40;9.48;;;13.30;99.90;;;;;;5008205;28;20033;-82
2024/03/19 11:20:47;;;;;;;25.65;10.05;;;13.40;99.90;;;;;;5003944;28;20017;-82
2024/03/19 11:23:22;;;;;;;19.73;9.77;;;13.40;99.90;;;;;;5027306;28;20049;-83
2024/03/19 11:25:49;;;;;;;17.38;8.98;;;13.40;99.90;;;;;;5009607;28;20392;-82
2024/03/19 11:28:29;;;;;;;17.35;9.07;;;13.30;99.90;;;;;;5010407;28;20092;-83
2024/03/19 11:30:55;;;;;;;20.42;8.85;;;13.30;99.90;;;;;;5010694;28;20021;-82
2024/03/19 11:33:22;;;;;;;21.85;9.77;;;13.10;99.90;;;;;;5013682;28;20530;-81
2024/03/19 11:35:48;;;;;;;24.23;8.35;;;13.10;99.90;;;;;;5030511;28;20029;-82
2024/03/19 11:38:15;;;;;;;21.55;7.28;;;13.10;99.90;;;;;;5014372;28;20104;-82
2024/03/19 11:40:41;;;;;;;20.73;8.60;;;13.10;99.90;;;;;;5011186;28;20391;-82
2024/03/19 11:43:13;;;;;;;17.98;8.38;;;13.20;99.90;;;;;;5015402;28;20022;-83
2024/03/19 11:45:40;;;;;;;22.88;9.30;;;13.20;99.90;;;;;;5015147;28;20017;-82
2024/03/19 11:48:13;;;;;;;24.98;8.70;;;13.30;99.90;;;;;;5011374;28;20021;-83
2024/03/19 11:50:45;;;;;;;19.77;8.88;;;13.20;99.90;;;;;;5013278;28;20014;-82
2024/03/19 11:53:10;;;;;;;18.95;8.98;;;13.40;99.90;;;;;;5014649;28;20029;-82
2024/03/19 11:55:39;;;;;;;16.48;8.63;;;13.50;99.90;;;;;;5031630;28;20029;-83
2024/03/19 11:58:05;;;;;;;23.25;9.38;;;13.60;99.90;;;;;;5033033;28;20453;-83
2024/03/19 12:00:30;;;;;;;21.70;9.38;;;13.50;99.90;;;;;;5015456;28;20483;-82
2024/03/19 12:02:56;;;;;;;25.70;11.35;;;13.30;99.90;;;;;;5011236;28;20026;-82
2024/03/19 12:05:24;;;;;;;8.30;4.65;;;13.30;99.90;;;;;;5014998;28;20395;-78
2024/03/19 12:07:51;;;;;;;6.20;3.20;;;13.70;99.90;;;;;;5012904;28;20025;-81
2024/03/19 12:10:24;;;;;;;9.50;4.45;;;14.30;99.90;;;;;;5014596;28;20026;-82
2024/03/19 12:12:50;;;;;;;10.63;5.20;;;14.60;99.90;;;;;;5014791;28;20403;-83
2024/03/19 12:15:18;;;;;;;9.93;4.80;;;14.80;99.90;;;;;;5032138;28;20399;-82
2024/03/19 12:17:46;;;;;;;11.13;5.35;;;14.90;99.90;;;;;;5030136;28;20043;-83
2024/03/19 12:20:12;;;;;;;10.23;3.75;;;14.90;99.90;;;;;;5010814;28;20027;-82
2024/03/19 12:22:39;;;;;;;14.20;5.10;;;15.00;99.90;;;;;;5030498;28;20024;-83
2024/03/19 12:25:11;;;;;;;8.18;4.25;;;15.00;99.90;;;;;;5032436;28;20017;-83
2024/03/19 12:27:40;;;;;;;7.93;4.10;;;14.90;99.90;;;;;;5029088;28;20017;-82
2024/03/19 12:30:15;;;;;;;8.38;4.10;;;14.90;99.90;;;;;;5013807;28;20024;-81
2024/03/19 12:32:59;;;;;;;7.60;4.30;;;14.80;99.90;;;;;;5029265;28;20399;-83
2024/03/19 12:35:29;;;;;;;7.15;4.65;;;14.90;99.90;;;;;;5013921;28;20026;-83
2024/03/19 12:37:54;;;;;;;12.38;3.90;;;14.90;99.90;;;;;;5028295;28;20033;-83
2024/03/19 12:40:22;;;;;;;5.75;3.47;;;14.90;99.90;;;;;;5014300;28;20029;-84
2024/03/19 12:42:48;;;;;;;7.50;3.20;;;15.00;99.90;;;;;;5010936;28;20025;-82
2024/03/19 12:45:15;;;;;;;8.27;4.22;;;15.00;99.90;;;;;;5028661;28;20025;-83